Time;durP1;ratioP1;P1;durP2;ratioP2;P2;SDS_P1;SDS_P2;PMS_P1;PMS_P2;Temp;Humidity;BMP_temperature;BMP_pressure;BME280_temperature;BME280_humidity;BME280_pressure;Samples;Min_cycle;Max_cycle;Signal;HPM_P1;HPM_P2
2022/09/28 13:01:56;;;;;;;3.65;1.00;;;22.90;90.80;;;;;;5168057;27;20896;-76
2022/09/28 13:04:48;;;;;;;1.90;0.80;;;22.80;90.10;;;;;;5144280;27;20103;-85
2022/09/28 13:07:36;;;;;;;2.50;1.00;;;22.70;89.60;;;;;;5126828;27;20046;-83
2022/09/28 13:10:25;;;;;;;4.82;1.15;;;22.50;90.40;;;;;;5126904;27;20023;-85
2022/09/28 13:13:09;;;;;;;5.03;0.70;;;22.30;90.70;;;;;;5132799;27;20498;-79
2022/09/28 13:15:57;;;;;;;2.75;0.95;;;22.10;84.10;;;;;;5152171;27;20439;-78
2022/09/28 13:18:47;;;;;;;2.75;0.80;;;21.80;90.20;;;;;;5154889;27;20117;-82
2022/09/28 13:21:25;;;;;;;3.50;1.00;;;21.70;90.80;;;;;;5130071;27;20063;-81
2022/09/28 13:23:56;;;;;;;2.60;1.10;;;21.70;91.20;;;;;;5133278;27;20366;-87
2022/09/28 13:38:48;;;;;;;2.05;0.40;;;21.50;80.40;;;;;;5088367;27;20495;-78
2022/09/28 13:41:16;;;;;;;2.28;0.88;;;19.30;82.20;;;;;;5084166;28;20028;-79
2022/09/28 13:44:16;;;;;;;3.45;0.60;;;17.20;90.10;;;;;;5073711;28;20028;-78
2022/09/28 13:47:09;;;;;;;2.50;0.80;;;15.70;93.00;;;;;;5085856;28;20124;-77
2022/09/28 13:49:56;;;;;;;4.00;0.80;;;14.70;94.60;;;;;;5078431;28;20042;-79
2022/09/28 13:52:27;;;;;;;5.25;0.85;;;14.30;95.80;;;;;;5113315;28;20032;-78
2022/09/28 13:55:31;;;;;;;5.87;0.80;;;14.10;96.40;;;;;;5091056;28;20066;-77
2022/09/28 13:58:22;;;;;;;2.53;0.93;;;14.10;97.10;;;;;;5090656;28;20093;-77
2022/09/28 14:01:07;;;;;;;5.10;1.50;;;14.50;97.10;;;;;;5090617;28;20119;-78
2022/09/28 14:04:10;;;;;;;4.67;1.33;;;14.70;96.20;;;;;;5078102;28;20167;-77
2022/09/28 14:06:40;;;;;;;2.20;0.95;;;14.70;96.00;;;;;;5108951;28;20029;-79
2022/09/28 14:09:12;;;;;;;3.13;0.80;;;14.60;95.50;;;;;;5095827;28;20032;-79
2022/09/28 14:11:52;;;;;;;2.72;0.93;;;14.50;94.90;;;;;;5076005;28;20017;-77
2022/09/28 14:14:17;;;;;;;3.37;1.17;;;14.20;95.20;;;;;;5079539;28;20088;-78
2022/09/28 14:16:43;;;;;;;3.47;1.10;;;14.00;95.90;;;;;;5081990;28;20052;-78
2022/09/28 14:19:30;;;;;;;1.17;0.80;;;13.60;96.90;;;;;;5076374;28;20032;-77
2022/09/28 14:22:33;;;;;;;4.53;1.20;;;13.20;98.40;;;;;;5076369;28;20103;-78
2022/09/28 14:41:16;;;;;;;2.57;1.00;;;12.30;99.90;;;;;;5035748;28;20040;-78
2022/09/28 14:43:44;;;;;;;2.03;1.07;;;12.30;99.90;;;;;;5025380;28;20029;-77
2022/09/28 14:46:10;;;;;;;3.73;1.73;;;12.30;99.90;;;;;;5038096;28;20192;-77
2022/09/28 14:48:55;;;;;;;2.33;1.00;;;12.10;99.90;;;;;;5036460;28;20519;-78
2022/09/28 14:51:28;;;;;;;4.50;1.37;;;11.90;99.90;;;;;;5023895;28;20037;-79
2022/09/28 14:54:14;;;;;;;4.40;1.23;;;11.80;99.90;;;;;;5022624;28;20120;-77
2022/09/28 14:56:50;;;;;;;4.53;0.93;;;11.70;99.90;;;;;;5023993;28;20111;-76
2022/09/28 14:59:42;;;;;;;1.97;0.63;;;11.50;99.90;;;;;;5021047;28;20037;-77
2022/09/28 15:02:12;;;;;;;5.73;1.03;;;11.30;99.90;;;;;;5011220;28;20034;-76
2022/09/28 15:04:45;;;;;;;2.53;0.60;;;10.90;99.90;;;;;;5027191;28;20127;-75
2022/09/28 15:07:20;;;;;;;5.77;0.63;;;10.50;99.90;;;;;;5062018;28;20090;-76
2022/09/28 15:09:49;;;;;;;3.37;0.47;;;10.20;99.90;;;;;;5071793;28;20361;-75
2022/09/28 15:12:24;;;;;;;2.40;0.50;;;10.10;99.90;;;;;;5061192;28;20173;-77
2022/09/28 15:14:52;;;;;;;2.40;0.50;;;10.00;99.90;;;;;;5057950;28;20118;-77
2022/09/28 15:17:22;;;;;;;3.00;0.70;;;10.00;99.90;;;;;;5077631;28;20170;-75
2022/09/28 15:19:55;;;;;;;4.67;1.10;;;10.00;99.90;;;;;;5062845;28;20082;-76
2022/09/28 15:22:21;;;;;;;4.87;1.20;;;10.40;99.90;;;;;;5069238;28;20033;-77
2022/09/28 15:24:58;;;;;;;4.83;2.13;;;11.20;99.90;;;;;;5056959;28;20728;-76
2022/09/28 15:27:25;;;;;;;4.33;2.37;;;13.60;99.90;;;;;;5091598;27;20063;-76
2022/09/28 15:29:58;;;;;;;5.80;3.90;;;15.00;99.90;;;;;;5056845;28;20033;-76
2022/09/28 15:32:29;;;;;;;3.87;1.30;;;15.10;99.90;;;;;;5059371;28;20168;-75
2022/09/28 15:34:55;;;;;;;2.80;1.60;;;15.20;99.90;;;;;;5057662;28;20040;-76
2022/09/28 15:37:34;;;;;;;6.37;2.80;;;14.90;99.90;;;;;;5057913;28;20029;-76
2022/09/28 15:40:01;;;;;;;2.20;0.73;;;15.40;99.90;;;;;;5057258;28;20028;-75
2022/09/28 15:42:35;;;;;;;14.20;3.30;;;16.70;99.90;;;;;;5058801;28;20048;-75
2022/09/28 15:45:02;;;;;;;3.25;1.30;;;18.50;99.90;;;;;;5058645;28;21869;-75
2022/09/28 15:47:30;;;;;;;1.90;0.95;;;19.50;99.90;;;;;;5055547;28;20033;-76
2022/09/28 15:49:59;;;;;;;3.90;1.10;;;18.30;99.90;;;;;;5056249;28;20028;-76
2022/09/28 15:52:32;;;;;;;5.90;2.80;;;16.70;99.90;;;;;;5089876;27;20071;-76
2022/09/28 15:55:00;;;;;;;5.17;2.67;;;15.40;99.90;;;;;;5056024;28;20040;-76
2022/09/28 15:57:42;;;;;;;12.53;4.83;;;14.40;99.90;;;;;;5055514;28;20028;-76
2022/09/28 16:00:21;;;;;;;7.25;3.33;;;13.60;99.90;;;;;;5090191;28;20035;-75
2022/09/28 16:03:09;;;;;;;15.53;7.50;;;13.00;99.90;;;;;;5074059;28;20857;-75
2022/09/28 16:05:45;;;;;;;8.40;2.60;;;12.70;99.90;;;;;;5077968;28;20025;-76
2022/09/28 16:08:20;;;;;;;3.23;0.90;;;13.30;99.90;;;;;;5056440;28;20490;-74
2022/09/28 16:11:04;;;;;;;4.10;0.90;;;13.00;99.90;;;;;;5068033;28;20029;-75
2022/09/28 16:13:30;;;;;;;5.43;1.00;;;12.20;99.90;;;;;;5063044;28;20325;-74
2022/09/28 16:15:58;;;;;;;3.10;0.83;;;11.70;99.90;;;;;;5072491;28;20032;-75
2022/09/28 16:18:28;;;;;;;2.87;0.90;;;11.40;99.90;;;;;;5058307;28;20033;-75
2022/09/28 16:20:59;;;;;;;3.33;1.20;;;11.20;99.90;;;;;;5059002;28;20031;-74
2022/09/28 16:23:33;;;;;;;5.90;2.67;;;11.10;99.90;;;;;;5058052;28;20021;-74
2022/09/28 16:26:15;;;;;;;6.30;1.53;;;11.00;99.90;;;;;;5090279;28;20274;-76
2022/09/28 16:28:44;;;;;;;3.25;1.67;;;10.90;99.90;;;;;;5056271;28;20060;-75
2022/09/28 16:31:13;;;;;;;6.80;1.60;;;10.80;99.90;;;;;;5057709;28;20068;-76
2022/09/28 16:33:39;;;;;;;3.90;1.37;;;10.80;99.90;;;;;;5072224;28;20056;-74
2022/09/28 16:36:11;;;;;;;4.47;2.00;;;10.70;99.90;;;;;;5056563;28;20064;-78
2022/09/28 16:38:37;;;;;;;3.80;1.73;;;10.70;99.90;;;;;;5058939;28;20025;-76
2022/09/28 16:41:04;;;;;;;5.03;1.70;;;10.60;99.90;;;;;;5094086;28;20119;-77
2022/09/28 16:43:33;;;;;;;4.07;1.80;;;10.60;99.90;;;;;;5075791;28;20053;-75
2022/09/28 16:46:00;;;;;;;3.97;2.40;;;10.60;99.90;;;;;;5057424;28;20063;-76
2022/09/28 16:48:28;;;;;;;5.23;2.10;;;10.50;99.90;;;;;;5064306;28;20471;-76
2022/09/28 16:50:57;;;;;;;4.93;2.10;;;10.50;99.90;;;;;;5059618;28;20029;-76
2022/09/28 16:56:09;;;;;;;6.50;1.43;;;10.50;99.90;;;;;;5061600;28;20048;-74
2022/09/28 16:58:37;;;;;;;2.03;0.90;;;10.50;99.90;;;;;;5056265;28;20495;-75
2022/09/28 17:01:07;;;;;;;4.53;1.23;;;10.40;99.90;;;;;;5054909;28;20025;-75
2022/09/28 17:03:41;;;;;;;5.27;1.10;;;10.40;99.90;;;;;;5055321;28;20029;-75
2022/09/28 17:06:10;;;;;;;3.77;1.13;;;10.30;99.90;;;;;;5056331;28;20062;-74
2022/09/28 17:08:38;;;;;;;2.93;1.00;;;10.30;99.90;;;;;;5057982;28;20036;-76
2022/09/28 17:11:09;;;;;;;5.30;1.30;;;10.20;99.90;;;;;;5068930;28;20033;-75
2022/09/28 17:13:36;;;;;;;3.60;1.50;;;10.20;99.90;;;;;;5054135;28;20036;-74
2022/09/28 17:16:16;;;;;;;2.30;1.00;;;10.10;99.90;;;;;;5086725;28;20059;-74
2022/09/28 17:18:42;;;;;;;7.20;1.63;;;10.10;99.90;;;;;;5054454;28;20025;-73
2022/09/28 17:21:17;;;;;;;4.63;1.60;;;10.10;99.90;;;;;;5053553;28;20040;-74
2022/09/28 17:23:47;;;;;;;3.50;1.40;;;10.00;99.90;;;;;;5049984;28;20032;-74
2022/09/28 17:26:32;;;;;;;3.60;1.33;;;9.90;99.90;;;;;;5052431;28;20028;-74
2022/09/28 17:28:58;;;;;;;7.43;4.73;;;9.90;99.90;;;;;;5052118;28;20060;-74
2022/09/28 17:31:24;;;;;;;10.43;3.40;;;9.80;99.90;;;;;;5053072;28;20490;-73
2022/09/28 17:33:51;;;;;;;9.30;3.13;;;9.80;99.90;;;;;;5056991;28;20597;-74
2022/09/28 17:36:20;;;;;;;7.43;3.27;;;9.70;99.90;;;;;;5055833;28;20036;-79
2022/09/28 17:38:51;;;;;;;6.70;3.70;;;9.70;99.90;;;;;;5053325;28;20171;-75
2022/09/28 17:41:22;;;;;;;15.63;10.25;;;9.60;99.90;;;;;;5069191;28;20748;-74
2022/09/28 17:43:48;;;;;;;9.83;7.70;;;9.40;99.90;;;;;;5054980;28;20040;-75
2022/09/28 17:46:20;;;;;;;13.63;8.83;;;9.40;99.90;;;;;;5070970;28;20021;-75
2022/09/28 17:48:48;;;;;;;11.68;7.30;;;9.30;99.90;;;;;;5059864;28;20029;-77
2022/09/28 17:51:16;;;;;;;22.17;11.90;;;9.20;99.90;;;;;;5055299;28;20032;-76
2022/09/28 17:53:42;;;;;;;15.43;10.33;;;9.10;99.90;;;;;;5070649;28;20033;-74
2022/09/28 17:56:10;;;;;;;20.97;12.90;;;9.00;99.90;;;;;;5053484;28;20445;-74
2022/09/28 17:58:39;;;;;;;17.03;11.33;;;9.00;99.90;;;;;;5052700;28;20128;-74
2022/09/28 18:01:15;;;;;;;19.30;12.57;;;8.90;99.90;;;;;;5055220;28;20028;-75
2022/09/28 18:03:44;;;;;;;15.80;8.67;;;8.90;99.90;;;;;;5054821;28;20029;-75
2022/09/28 18:06:18;;;;;;;16.17;7.80;;;8.90;99.90;;;;;;5057636;28;20047;-73
2022/09/28 18:08:49;;;;;;;10.33;7.60;;;9.00;99.90;;;;;;5053478;28;20030;-75
2022/09/28 18:11:16;;;;;;;17.30;8.50;;;9.00;99.90;;;;;;5054499;28;20040;-74
2022/09/28 18:13:44;;;;;;;18.93;10.80;;;9.00;99.90;;;;;;5054634;28;20025;-75
2022/09/28 18:16:11;;;;;;;23.67;12.33;;;9.00;99.90;;;;;;5054036;28;20024;-75
2022/09/28 18:18:39;;;;;;;15.13;11.63;;;9.00;99.90;;;;;;5054800;28;20075;-75
2022/09/28 18:21:11;;;;;;;16.77;11.13;;;9.00;99.90;;;;;;5056230;28;20021;-75
2022/09/28 18:23:40;;;;;;;18.33;12.75;;;9.00;99.90;;;;;;5059622;28;20121;-75
2022/09/28 18:26:13;;;;;;;18.03;10.93;;;9.00;99.90;;;;;;5075233;28;20479;-74
2022/09/28 18:28:39;;;;;;;17.80;12.10;;;9.10;99.90;;;;;;5061704;28;20164;-76
2022/09/28 18:31:10;;;;;;;25.83;14.13;;;9.00;99.90;;;;;;5064557;28;20107;-75
2022/09/28 18:33:36;;;;;;;19.57;13.77;;;9.00;99.90;;;;;;5059542;28;20207;-75
2022/09/28 18:36:04;;;;;;;20.93;12.23;;;9.00;99.90;;;;;;5064414;28;20402;-74
2022/09/28 18:38:37;;;;;;;18.60;13.97;;;9.00;99.90;;;;;;5061719;28;20484;-76
2022/09/28 18:41:08;;;;;;;17.47;10.87;;;9.10;99.90;;;;;;5060159;28;20170;-76
2022/09/28 18:43:34;;;;;;;13.67;10.87;;;9.10;99.90;;;;;;5061296;28;20032;-76
2022/09/28 18:46:06;;;;;;;18.10;11.70;;;9.10;99.90;;;;;;5094947;28;20025;-76
2022/09/28 18:48:31;;;;;;;21.47;13.17;;;9.10;99.90;;;;;;5064314;28;20020;-76
2022/09/28 18:50:57;;;;;;;21.87;12.73;;;9.00;99.90;;;;;;5061573;28;20032;-75
2022/09/28 18:53:23;;;;;;;18.33;13.90;;;9.00;99.90;;;;;;5061907;28;20064;-75
2022/09/28 18:55:48;;;;;;;21.23;15.13;;;9.10;99.90;;;;;;5060677;28;20032;-75
2022/09/28 18:58:14;;;;;;;26.73;16.37;;;9.10;99.90;;;;;;5057952;28;20035;-77
2022/09/28 19:00:41;;;;;;;24.00;14.53;;;9.00;99.90;;;;;;5060130;28;20143;-76
2022/09/28 19:03:10;;;;;;;23.77;14.23;;;9.10;99.90;;;;;;5057986;28;20017;-76
2022/09/28 19:05:41;;;;;;;27.30;15.73;;;9.00;99.90;;;;;;5062012;28;20043;-75
2022/09/28 19:08:07;;;;;;;30.00;16.53;;;9.00;99.90;;;;;;5092044;27;20024;-75
2022/09/28 19:10:32;;;;;;;27.70;17.00;;;9.00;99.90;;;;;;5074735;28;20323;-76
2022/09/28 19:12:58;;;;;;;25.77;16.30;;;9.00;99.90;;;;;;5057597;28;20068;-75
2022/09/28 19:15:26;;;;;;;28.23;16.33;;;9.00;99.90;;;;;;5059497;28;20360;-77
2022/09/28 19:17:51;;;;;;;27.03;16.47;;;8.90;99.90;;;;;;5059583;28;20044;-76
2022/09/28 19:20:17;;;;;;;21.60;15.07;;;8.90;99.90;;;;;;5060787;28;20025;-75
2022/09/28 19:22:43;;;;;;;27.70;16.23;;;8.80;99.90;;;;;;5059428;28;20029;-76
2022/09/28 19:25:09;;;;;;;30.17;17.17;;;8.80;99.90;;;;;;5062717;28;20077;-75
2022/09/28 19:27:35;;;;;;;26.00;17.37;;;8.90;99.90;;;;;;5060942;28;20341;-76
2022/09/28 19:30:01;;;;;;;26.30;16.60;;;8.80;99.90;;;;;;5059135;28;20028;-75
2022/09/28 19:32:28;;;;;;;24.67;16.33;;;8.80;99.90;;;;;;5058397;28;20033;-76
2022/09/28 19:34:53;;;;;;;28.43;17.07;;;8.80;99.90;;;;;;5064538;28;20025;-75
2022/09/28 19:37:19;;;;;;;24.73;16.50;;;8.80;99.90;;;;;;5058261;28;20036;-76
2022/09/28 19:39:45;;;;;;;32.30;23.03;;;8.80;99.90;;;;;;5066521;28;20147;-77
2022/09/28 19:42:10;;;;;;;33.93;22.10;;;8.70;99.90;;;;;;5060723;28;20021;-75
2022/09/28 19:44:38;;;;;;;26.17;15.53;;;8.70;99.90;;;;;;5059167;28;20032;-77
2022/09/28 19:47:07;;;;;;;23.47;14.97;;;8.70;99.90;;;;;;5058971;28;20021;-75
2022/09/28 19:49:35;;;;;;;23.10;15.33;;;8.80;99.90;;;;;;5059986;28;20028;-74
2022/09/28 19:52:14;;;;;;;25.00;15.27;;;8.80;99.90;;;;;;5059712;28;20039;-76
2022/09/28 19:54:55;;;;;;;20.40;14.13;;;8.80;99.90;;;;;;5061186;28;20021;-76
2022/09/28 19:57:26;;;;;;;20.23;13.07;;;8.80;99.90;;;;;;5060124;28;20090;-75
2022/09/28 19:59:52;;;;;;;17.13;11.83;;;8.70;99.90;;;;;;5064474;28;20020;-76
2022/09/28 20:02:18;;;;;;;14.90;11.23;;;8.70;99.90;;;;;;5056813;28;20571;-75
2022/09/28 20:04:44;;;;;;;15.70;10.53;;;8.60;99.90;;;;;;5056946;28;20152;-75
2022/09/28 20:07:10;;;;;;;13.67;9.60;;;8.70;99.90;;;;;;5056755;28;20159;-75
2022/09/28 20:09:35;;;;;;;20.80;10.70;;;8.70;99.90;;;;;;5058736;28;20116;-74
2022/09/28 20:12:01;;;;;;;11.07;9.30;;;8.60;99.90;;;;;;5057934;28;20067;-75
2022/09/28 20:14:26;;;;;;;16.30;9.50;;;8.70;99.90;;;;;;5058043;28;20036;-76
2022/09/28 20:16:57;;;;;;;14.83;9.40;;;8.70;99.90;;;;;;5058043;28;20510;-77
2022/09/28 20:19:22;;;;;;;14.67;8.80;;;8.60;99.90;;;;;;5057742;28;20036;-77
2022/09/28 20:21:48;;;;;;;15.23;9.30;;;8.60;99.90;;;;;;5059047;28;20037;-75
2022/09/28 20:24:15;;;;;;;15.40;9.80;;;8.60;99.90;;;;;;5058615;28;20790;-75
2022/09/28 20:26:44;;;;;;;18.30;11.40;;;8.60;99.90;;;;;;5092181;28;20024;-75
2022/09/28 20:29:10;;;;;;;17.83;10.20;;;8.50;99.90;;;;;;5060071;28;20017;-75
2022/09/28 20:31:36;;;;;;;18.03;10.33;;;8.60;99.90;;;;;;5093756;28;20035;-75
2022/09/28 20:34:03;;;;;;;24.53;13.90;;;8.50;99.90;;;;;;5059449;28;20028;-76
2022/09/28 20:36:31;;;;;;;26.80;14.33;;;8.50;99.90;;;;;;5057321;28;20020;-76
2022/09/28 20:39:02;;;;;;;33.33;15.23;;;8.50;99.90;;;;;;5055005;28;20028;-75
2022/09/28 20:41:35;;;;;;;21.27;13.53;;;8.40;99.90;;;;;;5066445;28;20826;-77
2022/09/28 20:44:03;;;;;;;;;;;8.40;99.90;;;;;;5056288;28;21629;-75
2022/09/28 20:46:29;;;;;;;21.63;13.50;;;8.50;99.90;;;;;;5059735;28;20376;-76
2022/09/28 20:48:56;;;;;;;18.93;12.63;;;8.50;99.90;;;;;;5059361;28;20032;-75
2022/09/28 20:51:22;;;;;;;24.03;13.67;;;8.50;99.90;;;;;;5075763;28;20036;-75
2022/09/28 20:53:50;;;;;;;20.83;13.53;;;8.50;99.90;;;;;;5061120;28;20095;-76
2022/09/28 20:56:21;;;;;;;23.50;13.83;;;8.60;99.90;;;;;;5057928;28;20025;-75
2022/09/28 20:58:49;;;;;;;20.23;13.40;;;8.50;99.90;;;;;;5059805;28;20052;-75
2022/09/28 21:01:20;;;;;;;20.77;13.30;;;8.60;99.90;;;;;;5057704;28;20503;-75
2022/09/28 21:03:51;;;;;;;20.43;13.50;;;8.60;99.90;;;;;;5059169;28;20028;-75
2022/09/28 21:06:18;;;;;;;17.97;12.67;;;8.60;99.90;;;;;;5059440;28;20040;-74
2022/09/28 21:08:45;;;;;;;18.73;13.37;;;8.60;99.90;;;;;;5075299;28;20536;-75
2022/09/28 21:11:12;;;;;;;26.47;15.87;;;8.60;99.90;;;;;;5056712;28;20033;-75
2022/09/28 21:13:42;;;;;;;24.90;14.73;;;8.60;99.90;;;;;;5058896;28;20038;-76
2022/09/28 21:16:16;;;;;;;23.83;15.10;;;8.60;99.90;;;;;;5056832;28;20036;-76
2022/09/28 21:18:42;;;;;;;23.90;15.53;;;8.60;99.90;;;;;;5057934;28;20476;-75
2022/09/28 21:21:13;;;;;;;25.30;15.33;;;8.70;99.90;;;;;;5056048;28;20029;-76
2022/09/28 21:23:39;;;;;;;25.97;16.67;;;8.70;99.90;;;;;;5061809;28;20113;-76
2022/09/28 21:26:10;;;;;;;31.73;16.73;;;8.70;99.90;;;;;;5056849;28;20025;-75
2022/09/28 21:28:36;;;;;;;25.97;14.97;;;8.70;99.90;;;;;;5055278;28;20029;-74
2022/09/28 21:31:05;;;;;;;26.47;13.97;;;8.70;99.90;;;;;;5056661;28;21614;-76
2022/09/28 21:33:31;;;;;;;26.83;14.93;;;8.70;99.90;;;;;;5055989;28;20021;-75
2022/09/28 21:36:06;;;;;;;26.83;16.30;;;8.80;99.90;;;;;;5090297;28;20174;-76
2022/09/28 21:38:32;;;;;;;24.70;15.27;;;8.80;99.90;;;;;;5058113;28;20029;-76
2022/09/28 21:40:59;;;;;;;27.73;16.60;;;8.80;99.90;;;;;;5090604;28;20027;-75
2022/09/28 21:43:27;;;;;;;28.57;16.63;;;8.80;99.90;;;;;;5056145;28;20127;-76
2022/09/28 21:45:54;;;;;;;26.07;15.30;;;8.80;99.90;;;;;;5056089;28;20075;-75
2022/09/28 21:48:21;;;;;;;27.50;17.07;;;8.80;99.90;;;;;;5059593;28;20920;-76
2022/09/28 21:50:57;;;;;;;30.07;17.47;;;8.80;99.90;;;;;;5056181;28;20029;-76
2022/09/28 21:53:24;;;;;;;27.60;16.53;;;8.80;99.90;;;;;;5058738;28;20387;-75
2022/09/28 21:55:51;;;;;;;27.10;17.13;;;8.80;99.90;;;;;;5061115;28;20029;-77
2022/09/28 21:58:22;;;;;;;30.13;17.40;;;8.80;99.90;;;;;;5056383;28;20038;-76
2022/09/28 22:01:00;;;;;;;30.70;17.53;;;8.80;99.90;;;;;;5061873;28;20021;-76
2022/09/28 22:03:27;;;;;;;26.80;16.77;;;8.80;99.90;;;;;;5095242;28;20696;-75
2022/09/28 22:05:52;;;;;;;20.27;13.97;;;8.80;99.90;;;;;;5062992;28;20029;-75
2022/09/28 22:08:19;;;;;;;22.67;15.40;;;8.80;99.90;;;;;;5062241;28;20152;-75
2022/09/28 22:10:45;;;;;;;30.30;18.00;;;8.80;99.90;;;;;;5079046;28;20024;-76
2022/09/28 22:13:13;;;;;;;21.77;14.83;;;8.80;99.90;;;;;;5057714;28;20029;-76
2022/09/28 22:15:38;;;;;;;27.97;16.37;;;8.80;99.90;;;;;;5065790;28;20038;-76
2022/09/28 22:18:04;;;;;;;35.00;17.50;;;8.80;99.90;;;;;;5060957;28;20029;-76
2022/09/28 22:20:30;;;;;;;25.30;15.83;;;8.80;99.90;;;;;;5061489;28;20035;-75
2022/09/28 22:22:55;;;;;;;25.33;15.77;;;8.80;99.90;;;;;;5061945;28;20040;-75
2022/09/28 22:25:21;;;;;;;22.57;15.33;;;8.80;99.90;;;;;;5061775;28;20137;-76
2022/09/28 22:27:46;;;;;;;24.00;16.13;;;8.80;99.90;;;;;;5059649;28;20520;-77
2022/09/28 22:30:12;;;;;;;24.80;16.03;;;8.80;99.90;;;;;;5058749;28;20090;-76
2022/09/28 22:32:38;;;;;;;21.40;13.93;;;8.80;99.90;;;;;;5056802;28;20036;-76
2022/09/28 22:35:06;;;;;;;21.27;13.83;;;8.80;99.90;;;;;;5062132;28;20032;-75
2022/09/28 22:37:32;;;;;;;18.50;13.03;;;8.80;99.90;;;;;;5058307;28;20029;-75
2022/09/28 22:39:59;;;;;;;17.90;12.70;;;8.80;99.90;;;;;;5077628;28;20028;-75
2022/09/28 22:42:25;;;;;;;24.60;13.13;;;8.80;99.90;;;;;;5058176;28;20042;-75
2022/09/28 22:44:50;;;;;;;19.13;12.83;;;8.80;99.90;;;;;;5058810;28;20025;-75
2022/09/28 22:47:16;;;;;;;18.30;12.70;;;8.80;99.90;;;;;;5059713;28;20033;-76
2022/09/28 22:49:46;;;;;;;16.97;12.67;;;8.80;99.90;;;;;;5091236;28;20071;-76
2022/09/28 22:52:12;;;;;;;17.93;12.37;;;8.80;99.90;;;;;;5062351;28;20079;-74
2022/09/28 22:54:39;;;;;;;15.83;10.60;;;8.80;99.90;;;;;;5061333;28;20589;-76
2022/09/28 22:57:04;;;;;;;13.67;10.47;;;8.80;99.90;;;;;;5060419;28;20041;-76
2022/09/28 22:59:30;;;;;;;15.13;11.70;;;8.80;99.90;;;;;;5060032;28;20125;-78
2022/09/28 23:01:58;;;;;;;13.73;11.60;;;8.80;99.90;;;;;;5058600;28;20037;-76
2022/09/28 23:04:23;;;;;;;17.23;12.10;;;8.70;99.90;;;;;;5059726;28;20627;-76
2022/09/28 23:06:49;;;;;;;15.73;11.93;;;8.70;99.90;;;;;;5059949;28;20028;-76
2022/09/28 23:09:15;;;;;;;21.13;12.83;;;8.60;99.90;;;;;;5062958;28;20021;-76
2022/09/28 23:11:40;;;;;;;18.00;11.77;;;8.50;99.90;;;;;;5060015;28;20043;-76
2022/09/28 23:14:09;;;;;;;16.30;10.97;;;8.50;99.90;;;;;;5063285;28;20024;-76
2022/09/28 23:16:34;;;;;;;14.57;11.20;;;8.50;99.90;;;;;;5054971;28;20036;-76
2022/09/28 23:19:02;;;;;;;12.63;10.10;;;8.50;99.90;;;;;;5059187;28;20036;-76
2022/09/28 23:21:28;;;;;;;15.17;12.03;;;8.50;99.90;;;;;;5061738;28;20107;-76
2022/09/28 23:24:00;;;;;;;13.03;11.40;;;8.40;99.90;;;;;;5063034;28;20400;-76
2022/09/28 23:26:33;;;;;;;15.18;12.45;;;8.40;99.90;;;;;;5059737;28;20039;-76
2022/09/28 23:28:59;;;;;;;14.00;11.30;;;8.40;99.90;;;;;;5064398;28;20064;-76
2022/09/28 23:31:29;;;;;;;17.80;12.33;;;8.30;99.90;;;;;;5058867;28;20093;-76
2022/09/28 23:34:04;;;;;;;26.30;14.30;;;8.20;99.90;;;;;;5068634;28;20103;-76
2022/09/28 23:36:30;;;;;;;20.10;13.20;;;8.10;99.90;;;;;;5059142;28;20024;-74
2022/09/28 23:38:58;;;;;;;18.97;13.73;;;8.00;99.90;;;;;;5060195;28;20033;-75
2022/09/28 23:41:24;;;;;;;19.93;13.47;;;8.00;99.90;;;;;;5060051;28;20547;-75
2022/09/28 23:43:50;;;;;;;20.77;14.43;;;7.90;99.90;;;;;;5057891;28;20103;-75
2022/09/28 23:46:17;;;;;;;21.63;15.00;;;7.90;99.90;;;;;;5058416;28;20029;-76
2022/09/28 23:48:43;;;;;;;20.17;14.07;;;7.80;99.90;;;;;;5060769;28;20025;-76
2022/09/28 23:51:11;;;;;;;20.67;14.10;;;7.80;99.90;;;;;;5057570;28;20029;-75
2022/09/28 23:53:39;;;;;;;22.87;13.97;;;7.70;99.90;;;;;;5058916;28;20028;-76
2022/09/28 23:56:05;;;;;;;21.27;15.40;;;7.70;99.90;;;;;;5073981;28;20132;-75
2022/09/28 23:58:35;;;;;;;29.20;13.47;;;7.50;99.90;;;;;;5057019;28;20116;-75
